Time;durP1;ratioP1;P1;durP2;ratioP2;P2;SDS_P1;SDS_P2;PMS_P1;PMS_P2;Temp;Humidity;BMP_temperature;BMP_pressure;BME280_temperature;BME280_humidity;BME280_pressure;Samples;Min_cycle;Max_cycle;Signal;HPM_P1;HPM_P2
2022/06/09 00:02:12;;;;;;;;;8.80;7.80;;;;;22.02;57.33;98549.16;5135509;27;8851;-74
2022/06/09 00:04:41;;;;;;;;;11.20;10.60;;;;;22.08;57.20;98545.28;5153865;27;9608;-73
2022/06/09 00:07:15;;;;;;;;;8.00;7.40;;;;;22.08;57.21;98543.50;5154231;27;8827;-74
2022/06/09 00:09:50;;;;;;;;;7.40;7.40;;;;;22.10;57.40;98540.75;5154052;27;8827;-74
2022/06/09 00:12:20;;;;;;;;;8.60;8.60;;;;;22.11;58.36;98539.78;5154006;27;9642;-74
2022/06/09 00:14:48;;;;;;;;;11.60;8.60;;;;;22.10;59.17;98538.09;5153778;27;8851;-73
2022/06/09 00:17:18;;;;;;;;;11.80;10.60;;;;;21.96;60.20;98534.50;5153928;27;8839;-75
2022/06/09 00:19:47;;;;;;;;;9.40;8.60;;;;;21.96;60.37;98536.31;5153782;27;8843;-75
2022/06/09 00:22:15;;;;;;;;;8.20;8.20;;;;;22.00;60.43;98537.81;5154224;27;8835;-75
2022/06/09 00:24:44;;;;;;;;;10.40;10.40;;;;;21.87;61.48;98535.09;5100525;27;8851;-74
2022/06/09 00:27:13;;;;;;;;;15.40;13.00;;;;;21.97;60.86;98541.50;5153833;27;8859;-74
2022/06/09 00:29:42;;;;;;;;;13.20;12.60;;;;;21.98;61.28;98531.75;5084136;27;9905;-74
2022/06/09 00:32:10;;;;;;;;;11.40;11.20;;;;;22.03;61.09;98539.44;5153931;27;8847;-73
2022/06/09 00:34:40;;;;;;;;;13.20;12.00;;;;;22.02;61.58;98527.09;5153752;27;8832;-73
2022/06/09 00:37:09;;;;;;;;;12.20;11.80;;;;;21.92;62.00;98526.81;5154333;27;8889;-76
2022/06/09 00:39:37;;;;;;;;;17.40;13.40;;;;;21.91;62.21;98530.41;5153987;27;8863;-73
2022/06/09 00:42:08;;;;;;;;;12.00;12.00;;;;;21.92;62.27;98532.13;5135285;27;8812;-74
2022/06/09 00:44:38;;;;;;;;;11.20;8.80;;;;;21.85;62.86;98515.72;5134974;27;8827;-74
2022/06/09 00:47:17;;;;;;;;;14.00;11.60;;;;;21.97;62.42;98524.75;5153766;27;8815;-74
2022/06/09 00:49:55;;;;;;;;;12.60;12.40;;;;;21.89;62.76;98511.09;5153469;27;8889;-74
2022/06/09 00:52:28;;;;;;;;;11.80;8.80;;;;;21.95;62.68;98518.69;5153031;27;8866;-75
2022/06/09 00:55:01;;;;;;;;;12.60;12.60;;;;;21.87;63.07;98511.22;5153383;27;8862;-74
2022/06/09 00:57:35;;;;;;;;;14.60;14.60;;;;;21.71;63.82;98507.81;5153163;27;9604;-73
2022/06/09 01:00:08;;;;;;;;;13.00;12.40;;;;;21.52;64.48;98505.47;5116407;27;8881;-73
2022/06/09 01:02:38;;;;;;;;;13.20;13.20;;;;;21.67;63.81;98515.09;5098874;27;8863;-72
2022/06/09 01:05:09;;;;;;;;;12.60;12.40;;;;;21.80;63.25;98502.78;5153167;27;8839;-73
2022/06/09 01:07:42;;;;;;;;;11.40;11.40;;;;;21.73;63.81;98509.41;5153354;27;8962;-73
2022/06/09 01:10:12;;;;;;;;;14.00;13.40;;;;;21.79;63.59;98509.00;5153246;27;8835;-74
2022/06/09 01:12:43;;;;;;;;;14.60;13.00;;;;;21.90;63.23;98508.34;5153721;27;8831;-74
2022/06/09 01:15:15;;;;;;;;;13.60;13.00;;;;;21.96;63.26;98499.13;5152768;27;9688;-74
2022/06/09 01:17:54;;;;;;;;;13.60;13.20;;;;;22.01;62.92;98494.38;5116505;27;8869;-73
2022/06/09 01:20:41;;;;;;;;;12.60;12.60;;;;;22.05;62.70;98490.59;5152716;27;8827;-72
2022/06/09 01:23:38;;;;;;;;;14.00;13.80;;;;;22.09;62.66;98491.25;5152325;27;8962;-73
2022/06/09 01:26:42;;;;;;;;;15.80;14.60;;;;;22.11;62.31;98486.69;5152366;27;8847;-73
2022/06/09 01:29:27;;;;;;;;;14.80;14.80;;;;;22.11;62.37;98484.03;5152254;27;8843;-73
2022/06/09 01:32:05;;;;;;;;;13.80;13.80;;;;;22.07;62.96;98488.69;5152184;27;8822;-74
2022/06/09 01:34:40;;;;;;;;;14.00;13.60;;;;;22.02;63.09;98482.81;5151890;27;8859;-73
2022/06/09 01:37:15;;;;;;;;;16.80;16.80;;;;;21.96;63.58;98480.56;5152056;27;8922;-73
2022/06/09 01:39:49;;;;;;;;;14.60;13.40;;;;;21.89;63.67;98480.09;5152185;27;8997;-75
2022/06/09 01:42:24;;;;;;;;;14.40;14.40;;;;;21.84;63.98;98479.53;5152167;27;8839;-73
2022/06/09 01:44:56;;;;;;;;;13.80;13.80;;;;;21.86;64.08;98477.63;5151697;27;8923;-74
2022/06/09 01:47:34;;;;;;;;;13.40;10.20;;;;;21.89;64.01;98473.94;5151885;27;8815;-73
2022/06/09 01:50:07;;;;;;;;;15.40;15.40;;;;;21.75;64.73;98485.44;5152050;27;8855;-73
2022/06/09 01:52:38;;;;;;;;;16.00;16.00;;;;;21.76;64.36;98477.38;5151715;27;8840;-75
2022/06/09 01:55:10;;;;;;;;;17.40;15.40;;;;;21.79;64.17;98486.94;5151895;27;8858;-73
2022/06/09 01:57:42;;;;;;;;;15.80;15.80;;;;;21.78;64.13;98491.41;5151621;27;8871;-74
2022/06/09 02:00:14;;;;;;;;;15.60;14.60;;;;;21.75;64.22;98478.31;5151966;27;8831;-73
2022/06/09 02:02:49;;;;;;;;;13.00;13.00;;;;;21.74;64.17;98481.09;5098683;27;8859;-73
2022/06/09 02:05:22;;;;;;;;;16.40;16.00;;;;;21.69;64.41;98472.56;5151534;27;9581;-76
2022/06/09 02:07:54;;;;;;;;;14.20;14.20;;;;;21.68;64.39;98478.81;5151597;27;9556;-74
2022/06/09 02:10:31;;;;;;;;;14.40;14.40;;;;;21.67;64.48;98477.13;5151940;27;8870;-74
2022/06/09 02:13:04;;;;;;;;;14.40;14.40;;;;;21.63;64.71;98478.25;5150914;27;8984;-73
2022/06/09 02:15:38;;;;;;;;;15.80;14.20;;;;;21.64;64.67;98475.50;5133253;27;8843;-73
2022/06/09 02:18:11;;;;;;;;;14.40;14.20;;;;;21.66;64.74;98472.75;5151776;27;8966;-74
2022/06/09 02:20:45;;;;;;;;;18.00;14.80;;;;;21.62;64.84;98469.44;5151444;27;8843;-74
2022/06/09 02:23:15;;;;;;;;;14.80;14.20;;;;;21.64;64.90;98469.34;5151652;27;8908;-73
2022/06/09 02:25:44;;;;;;;;;16.80;15.80;;;;;21.61;64.89;98467.75;5098588;27;8939;-74
2022/06/09 02:28:12;;;;;;;;;15.00;15.00;;;;;21.64;64.91;98469.34;5151127;27;8839;-75
2022/06/09 02:30:42;;;;;;;;;14.80;14.40;;;;;21.65;64.90;98476.38;5151125;27;8823;-74
2022/06/09 02:33:21;;;;;;;;;15.40;15.40;;;;;21.46;65.42;98466.91;5151194;27;8855;-74
2022/06/09 02:35:51;;;;;;;;;16.80;16.00;;;;;21.50;65.24;98470.22;5151213;27;8835;-73
2022/06/09 02:38:21;;;;;;;;;15.60;15.40;;;;;21.48;65.48;98465.00;5150940;27;8858;-73
2022/06/09 02:40:50;;;;;;;;;14.60;13.20;;;;;21.48;65.48;98472.97;5150851;27;8893;-74
2022/06/09 02:43:19;;;;;;;;;16.60;16.20;;;;;21.42;65.81;98468.84;5150712;27;8827;-73
2022/06/09 02:45:47;;;;;;;;;20.00;17.00;;;;;21.34;66.03;98465.84;5151120;27;8923;-74
2022/06/09 02:48:16;;;;;;;;;18.60;17.80;;;;;21.33;65.76;98460.63;5150588;27;8855;-75
2022/06/09 02:50:47;;;;;;;;;17.80;17.80;;;;;21.32;65.95;98462.44;5150900;27;8839;-74
2022/06/09 02:53:16;;;;;;;;;15.00;15.00;;;;;21.35;66.05;98464.03;5150863;27;9581;-74
2022/06/09 02:55:45;;;;;;;;;13.40;13.40;;;;;21.38;65.80;98466.50;5150713;27;8835;-74
2022/06/09 02:58:14;;;;;;;;;15.80;15.80;;;;;21.41;65.44;98476.91;5150782;27;8827;-74
2022/06/09 03:00:44;;;;;;;;;15.00;15.00;;;;;21.38;65.81;98469.16;5150898;27;8843;-73
2022/06/09 03:03:15;;;;;;;;;15.60;15.00;;;;;21.37;65.81;98472.75;5151152;27;8870;-75
2022/06/09 03:05:44;;;;;;;;;44.25;39.00;;;;;21.35;66.11;98477.28;5150783;27;8827;-75
2022/06/09 03:08:14;;;;;;;;;42.75;35.75;;;;;21.32;66.42;98474.81;5150346;27;9600;-73
2022/06/09 03:10:42;;;;;;;;;18.40;18.40;;;;;21.30;66.18;98474.91;5150582;27;8886;-73
2022/06/09 03:13:11;;;;;;;;;17.60;17.60;;;;;21.23;66.35;98474.44;5150471;27;8830;-75
2022/06/09 03:15:39;;;;;;;;;18.00;18.00;;;;;21.25;66.53;98471.72;5097676;27;8851;-76
2022/06/09 03:18:07;;;;;;;;;16.40;15.00;;;;;21.23;66.51;98463.00;5150205;27;9474;-73
2022/06/09 03:20:36;;;;;;;;;18.20;18.20;;;;;21.20;66.53;98460.53;5149303;27;8864;-74
2022/06/09 03:23:05;;;;;;;;;16.80;16.80;;;;;21.22;66.35;98459.47;5150078;27;8843;-74
2022/06/09 03:25:36;;;;;;;;;17.40;17.40;;;;;21.19;66.25;98458.81;5097518;27;8874;-73
2022/06/09 03:28:06;;;;;;;;;18.40;18.40;;;;;21.20;66.21;98455.22;5150604;27;8827;-74
2022/06/09 03:30:36;;;;;;;;;16.80;16.80;;;;;21.26;66.15;98454.84;5098019;27;9589;-74
2022/06/09 03:33:05;;;;;;;;;15.80;15.40;;;;;21.31;65.85;98452.75;5149991;27;8827;-74
2022/06/09 03:35:34;;;;;;;;;19.80;18.40;;;;;21.34;65.56;98457.88;5149905;27;8831;-73
2022/06/09 03:38:03;;;;;;;;;13.80;13.60;;;;;21.37;64.78;98454.19;5131505;27;8851;-74
2022/06/09 03:40:32;;;;;;;;;13.00;13.00;;;;;21.28;64.42;98452.94;5150408;27;8982;-73
2022/06/09 03:43:03;;;;;;;;;15.40;14.40;;;;;21.15;64.97;98457.28;5150081;27;8850;-73
2022/06/09 03:45:34;;;;;;;;;16.80;15.60;;;;;21.05;65.37;98458.81;5150196;27;8831;-75
2022/06/09 03:48:03;;;;;;;;;14.00;13.00;;;;;21.16;64.96;98459.03;5149930;27;8958;-74
2022/06/09 03:50:32;;;;;;;;;12.20;11.40;;;;;21.22;64.68;98463.94;5150080;27;8910;-74
2022/06/09 03:53:02;;;;;;;;;13.60;12.40;;;;;21.28;64.53;98452.09;5131889;27;8839;-74
2022/06/09 03:55:32;;;;;;;;;13.80;13.00;;;;;21.38;64.46;98454.09;5150119;27;8862;-75
2022/06/09 03:58:02;;;;;;;;;65.75;55.75;;;;;21.49;63.94;98460.53;5150191;27;8831;-75
2022/06/09 04:00:32;;;;;;;;;14.80;14.80;;;;;21.49;63.91;98458.72;5150006;27;8859;-74
2022/06/09 04:03:01;;;;;;;;;15.40;14.80;;;;;21.35;64.53;98461.38;5149779;27;8836;-74
2022/06/09 04:05:30;;;;;;;;;14.20;14.20;;;;;21.32;64.59;98465.09;5131192;27;8839;-74
2022/06/09 04:08:00;;;;;;;;;14.00;13.20;;;;;21.45;64.35;98465.19;5113988;27;8914;-74
2022/06/09 04:10:31;;;;;;;;;16.60;13.80;;;;;21.55;64.00;98473.41;5106386;28;9557;-73
2022/06/09 04:12:59;;;;;;;;;14.80;12.20;;;;;21.57;63.88;98464.44;5106591;28;8883;-73
2022/06/09 04:15:30;;;;;;;;;24.40;23.20;;;;;21.67;63.47;98464.69;5089357;28;8859;-74
2022/06/09 04:17:59;;;;;;;;;16.40;15.80;;;;;21.57;63.60;98466.25;5073172;28;8895;-74
2022/06/09 04:20:28;;;;;;;;;18.80;18.20;;;;;21.46;64.26;98468.72;5106117;28;8855;-73
2022/06/09 04:22:57;;;;;;;;;16.00;14.60;;;;;21.47;63.73;98463.28;5103857;28;8875;-75
2022/06/09 04:25:25;;;;;;;;;19.20;19.00;;;;;21.33;64.46;98469.44;5065101;28;8832;-74
2022/06/09 04:27:54;;;;;;;;;17.80;17.00;;;;;21.34;64.71;98473.81;5065536;28;8961;-73
2022/06/09 04:30:23;;;;;;;;;42.50;36.50;;;;;21.40;64.39;98473.41;5065126;28;8887;-74
2022/06/09 04:32:55;;;;;;;;;23.80;23.40;;;;;21.54;64.01;98469.91;5068175;28;8871;-75
2022/06/09 04:35:25;;;;;;;;;16.40;15.40;;;;;21.65;63.28;98471.91;5068928;28;8871;-74
2022/06/09 04:38:03;;;;;;;;;38.50;34.50;;;;;21.74;64.07;98470.47;5068971;28;8852;-74
2022/06/09 04:40:34;;;;;;;;;37.25;31.00;;;;;21.83;64.30;98463.72;5104549;27;8916;-73
2022/06/09 04:43:05;;;;;;;;;24.75;23.50;;;;;21.92;64.08;98471.09;5153960;27;8843;-74
2022/06/09 04:45:34;;;;;;;;;22.00;20.80;;;;;21.97;63.88;98474.31;5153820;27;8922;-73
2022/06/09 04:48:05;;;;;;;;;16.20;14.40;;;;;22.06;63.91;98475.50;5153696;27;8865;-73
2022/06/09 04:50:34;;;;;;;;;19.00;18.00;;;;;22.15;63.34;98473.09;5099966;27;8852;-73
2022/06/09 04:53:05;;;;;;;;;16.20;16.20;;;;;22.30;63.08;98475.72;5153266;27;8960;-74
2022/06/09 04:55:34;;;;;;;;;15.00;15.00;;;;;22.39;62.39;98469.81;5153228;27;8831;-74
2022/06/09 04:58:03;;;;;;;;;18.20;17.20;;;;;22.51;62.06;98461.03;5153384;27;8917;-73
2022/06/09 05:00:32;;;;;;;;;14.40;14.40;;;;;22.63;61.45;98463.78;5153122;27;8828;-75
2022/06/09 05:03:01;;;;;;;;;18.40;16.00;;;;;22.70;61.41;98457.13;5152948;27;8847;-75
2022/06/09 05:05:35;;;;;;;;;14.80;14.40;;;;;22.75;61.28;98462.97;5134688;27;8882;-76
2022/06/09 05:08:04;;;;;;;;;15.40;14.20;;;;;22.81;60.81;98459.06;5134105;27;8859;-74
2022/06/09 05:10:32;;;;;;;;;14.60;13.80;;;;;22.81;60.80;98462.56;5099070;27;8847;-74
2022/06/09 05:13:01;;;;;;;;;18.20;15.80;;;;;22.72;60.91;98465.84;5152678;27;8831;-75
2022/06/09 05:15:30;;;;;;;;;15.40;14.40;;;;;22.68;60.96;98472.31;5152560;27;8861;-75
2022/06/09 05:17:58;;;;;;;;;15.00;14.00;;;;;22.68;60.96;98475.81;5152544;27;9599;-74
2022/06/09 05:20:28;;;;;;;;;14.00;13.20;;;;;22.78;60.40;98468.09;5152425;27;8824;-74
2022/06/09 05:22:59;;;;;;;;;11.00;11.00;;;;;22.79;60.15;98464.47;5152414;27;8846;-74
2022/06/09 05:25:27;;;;;;;;;12.20;12.20;;;;;22.78;60.48;98460.97;5152823;27;8877;-74
2022/06/09 05:27:56;;;;;;;;;13.40;13.40;;;;;22.91;59.70;98471.63;5152192;27;8851;-76
2022/06/09 05:30:25;;;;;;;;;11.40;9.80;;;;;22.92;59.69;98468.00;5152442;27;8832;-75
2022/06/09 05:32:54;;;;;;;;;11.20;10.40;;;;;22.90;59.79;98467.25;5152272;27;8983;-75
2022/06/09 05:35:23;;;;;;;;;9.80;9.80;;;;;23.05;59.35;98459.22;5152229;27;8866;-74
2022/06/09 05:46:15;;;;;;;;;12.40;11.20;;;;;23.28;58.80;98469.09;5138307;27;8933;-73
2022/06/09 05:48:44;;;;;;;;;10.20;10.20;;;;;23.53;58.35;98459.38;5130855;27;8837;-74
2022/06/09 05:51:15;;;;;;;;;12.60;12.20;;;;;23.65;57.70;98471.81;5130834;27;8891;-75
2022/06/09 05:53:44;;;;;;;;;11.40;11.00;;;;;23.77;57.56;98472.72;5131180;27;8896;-75
2022/06/09 05:56:16;;;;;;;;;11.60;11.60;;;;;23.89;57.03;98465.69;5112780;27;8845;-74
2022/06/09 05:58:46;;;;;;;;;11.00;11.00;;;;;24.12;56.66;98464.88;5130952;27;8883;-74
2022/06/09 06:01:16;;;;;;;;;11.00;11.00;;;;;24.09;56.21;98459.75;5130601;27;8849;-75
2022/06/09 06:03:45;;;;;;;;;13.20;12.20;;;;;24.33;55.86;98458.91;5130967;27;8957;-75
2022/06/09 06:09:06;;;;;;;;;15.60;12.00;;;;;24.61;55.40;98452.41;5151661;27;8938;-75
2022/06/09 06:11:38;;;;;;;;;12.00;11.20;;;;;24.74;53.64;98454.94;5151307;27;8889;-75
2022/06/09 06:14:08;;;;;;;;;10.20;9.60;;;;;24.83;52.48;98454.25;5151520;27;8922;-75
2022/06/09 06:16:38;;;;;;;;;7.40;7.40;;;;;24.86;51.37;98446.03;5151174;27;8962;-74
2022/06/09 06:19:10;;;;;;;;;7.60;7.40;;;;;24.89;49.90;98443.09;5132785;27;8835;-75
2022/06/09 06:21:39;;;;;;;;;7.00;6.80;;;;;25.01;48.81;98449.31;5151254;27;8839;-75
2022/06/09 06:24:09;;;;;;;;;10.00;7.40;;;;;25.17;49.19;98448.13;5151149;27;8843;-75
2022/06/09 06:26:39;;;;;;;;;7.60;7.40;;;;;25.23;49.75;98445.84;5132453;27;8958;-75
2022/06/09 06:29:13;;;;;;;;;9.00;9.00;;;;;25.19;50.03;98441.69;5151153;27;9431;-76
2022/06/09 06:31:42;;;;;;;;;7.60;7.60;;;;;25.20;50.01;98440.72;5150908;27;8935;-75
2022/06/09 06:34:10;;;;;;;;;9.40;9.40;;;;;24.75;50.77;98439.81;5150913;27;8855;-77
2022/06/09 06:36:39;;;;;;;;;10.60;9.60;;;;;24.90;51.05;98436.81;5150966;27;8827;-76
2022/06/09 06:39:08;;;;;;;;;9.40;8.60;;;;;25.13;50.74;98441.34;5151286;27;8863;-76
2022/06/09 06:41:38;;;;;;;;;11.00;10.00;;;;;25.18;50.32;98439.13;5150759;27;8831;-74
2022/06/09 06:44:08;;;;;;;;;9.40;9.40;;;;;25.00;50.44;98428.09;5151357;27;8832;-75
2022/06/09 06:46:37;;;;;;;;;9.00;7.80;;;;;25.09;50.60;98427.38;5150786;27;8839;-75
2022/06/09 06:49:06;;;;;;;;;9.60;9.60;;;;;25.30;49.96;98427.53;5150574;27;8844;-76
2022/06/09 06:51:35;;;;;;;;;9.60;9.60;;;;;25.51;49.32;98434.81;5150723;27;8879;-74
2022/06/09 06:54:06;;;;;;;;;10.20;9.60;;;;;25.76;49.20;98429.16;5150568;27;8911;-75
2022/06/09 06:56:35;;;;;;;;;7.80;7.80;;;;;25.87;49.16;98428.31;5150771;27;8843;-76
2022/06/09 06:59:04;;;;;;;;;9.40;8.60;;;;;25.96;49.30;98438.28;5150460;27;8831;-75
2022/06/09 07:01:35;;;;;;;;;11.00;10.80;;;;;26.13;49.19;98430.72;5150593;27;8930;-75
2022/06/09 07:04:04;;;;;;;;;9.40;8.20;;;;;26.24;47.62;98430.66;5150691;27;8859;-77
2022/06/09 07:06:33;;;;;;;;;11.60;10.40;;;;;26.25;47.04;98432.34;5150863;27;8831;-75
2022/06/09 07:09:02;;;;;;;;;9.00;9.00;;;;;26.38;46.62;98427.66;5150295;27;9604;-75
2022/06/09 07:11:30;;;;;;;;;13.80;11.20;;;;;26.56;47.35;98427.97;5150585;27;8847;-75
2022/06/09 07:13:59;;;;;;;;;6.80;6.00;;;;;26.63;44.80;98422.94;5150314;27;8865;-74
2022/06/09 07:16:28;;;;;;;;;6.80;6.80;;;;;26.69;44.42;98422.44;5150719;27;8838;-74
2022/06/09 07:19:15;;;;;;;;;8.20;7.20;;;;;26.83;44.82;98413.25;5150588;27;8930;-76
2022/06/09 07:21:44;;;;;;;;;7.80;7.20;;;;;26.81;44.41;98415.19;5097628;27;8812;-76
2022/06/09 07:24:13;;;;;;;;;7.60;7.60;;;;;26.71;44.01;98412.47;5150540;27;8913;-75
2022/06/09 07:26:41;;;;;;;;;7.00;7.00;;;;;26.84;44.40;98404.22;5150248;27;9100;-75
2022/06/09 07:29:10;;;;;;;;;8.20;8.20;;;;;26.99;44.39;98410.94;5150446;27;8862;-75
2022/06/09 07:31:39;;;;;;;;;9.20;7.60;;;;;27.04;43.67;98403.34;5150258;27;8911;-76
2022/06/09 07:34:08;;;;;;;;;7.00;7.00;;;;;27.17;44.02;98407.66;5131641;27;8896;-76
2022/06/09 07:36:39;;;;;;;;;7.40;7.20;;;;;27.23;44.22;98401.75;5150015;27;8846;-74
2022/06/09 07:39:08;;;;;;;;;8.60;8.00;;;;;27.18;44.40;98396.81;5149910;27;8858;-75
2022/06/09 07:41:37;;;;;;;;;7.40;7.40;;;;;27.23;44.46;98386.53;5149937;27;8924;-75
2022/06/09 07:44:08;;;;;;;;;6.80;6.00;;;;;27.30;44.93;98394.06;5150232;27;8820;-75
2022/06/09 07:46:38;;;;;;;;;5.80;5.80;;;;;27.42;43.86;98390.28;5150218;27;8985;-75
2022/06/09 07:49:08;;;;;;;;;7.80;7.80;;;;;27.51;42.58;98394.00;5149852;27;8859;-75
2022/06/09 07:51:38;;;;;;;;;6.20;6.20;;;;;27.57;42.03;98388.06;5097102;27;8946;-75
2022/06/09 07:54:14;;;;;;;;;8.00;7.00;;;;;27.60;41.45;98385.97;5149943;27;8823;-75
2022/06/09 07:56:43;;;;;;;;;8.40;6.80;;;;;27.69;40.90;98383.44;5150325;27;8859;-74
2022/06/09 07:59:12;;;;;;;;;8.00;8.00;;;;;27.71;41.03;98378.78;5149710;27;8847;-73
2022/06/09 08:01:41;;;;;;;;;7.00;7.00;;;;;27.67;41.05;98382.72;5149839;27;8858;-75
2022/06/09 08:04:09;;;;;;;;;6.00;6.00;;;;;27.65;39.94;98374.00;5149177;27;8855;-74
2022/06/09 08:06:39;;;;;;;;;11.60;11.60;;;;;27.63;40.83;98376.81;5098150;27;8892;-75
2022/06/09 08:09:08;;;;;;;;;6.80;6.80;;;;;27.54;41.46;98381.19;5153723;27;8851;-75
2022/06/09 08:11:38;;;;;;;;;8.80;7.60;;;;;27.62;41.38;98372.44;5153967;27;8835;-75
2022/06/09 08:14:08;;;;;;;;;6.00;6.00;;;;;27.28;41.64;98374.59;5153705;27;8836;-75
2022/06/09 08:16:38;;;;;;;;;9.60;9.20;;;;;27.28;42.00;98374.59;5153478;27;8831;-73
2022/06/09 08:19:07;;;;;;;;;8.00;8.00;;;;;27.41;41.27;98361.81;5153743;27;8828;-76
2022/06/09 08:21:43;;;;;;;;;5.80;5.80;;;;;27.54;41.09;98372.28;5153805;27;8816;-75
2022/06/09 08:24:21;;;;;;;;;4.20;4.20;;;;;27.67;40.99;98374.69;5104551;27;8840;-75
2022/06/09 08:26:50;;;;;;;;;6.20;6.20;;;;;27.74;41.13;98368.66;5153513;27;8935;-75
2022/06/09 08:29:25;;;;;;;;;6.00;6.00;;;;;27.81;40.82;98379.66;5153350;27;8819;-74
2022/06/09 08:31:54;;;;;;;;;8.40;7.40;;;;;27.83;40.41;98374.16;5153679;27;8832;-75
2022/06/09 08:34:23;;;;;;;;;6.00;6.00;;;;;27.85;39.88;98374.88;5153549;27;8891;-76
2022/06/09 08:36:54;;;;;;;;;5.00;5.00;;;;;27.95;40.05;98373.06;5100651;27;8855;-74
2022/06/09 08:39:23;;;;;;;;;6.40;5.80;;;;;28.14;40.36;98372.22;5154324;27;8820;-74
2022/06/09 08:42:03;;;;;;;;;7.80;7.40;;;;;28.32;40.41;98365.19;5156539;27;8827;-76
2022/06/09 08:44:37;;;;;;;;;8.00;8.00;;;;;28.38;40.47;98369.97;5155837;27;8993;-75
2022/06/09 08:47:15;;;;;;;;;7.60;7.60;;;;;28.26;39.66;98378.28;5154386;27;8843;-74
2022/06/09 08:50:06;;;;;;;;;6.40;6.40;;;;;28.44;38.84;98383.78;5153771;27;8907;-74
2022/06/09 08:52:48;;;;;;;;;4.80;4.80;;;;;28.44;36.55;98381.94;5153637;27;8840;-74
2022/06/09 08:55:33;;;;;;;;;6.20;6.00;;;;;28.70;36.82;98378.69;5102149;27;8885;-75
2022/06/09 08:58:12;;;;;;;;;8.00;7.00;;;;;28.64;36.14;98384.63;5152834;27;8865;-73
2022/06/09 09:00:44;;;;;;;;;3.60;3.60;;;;;28.71;37.70;98378.53;5153118;27;8839;-76
2022/06/09 09:03:28;;;;;;;;;7.20;7.20;;;;;28.70;37.83;98371.50;5153022;27;8835;-74
2022/06/09 09:06:04;;;;;;;;;8.40;8.40;;;;;28.70;37.71;98367.97;5153170;27;8854;-74
2022/06/09 09:08:35;;;;;;;;;7.00;5.40;;;;;28.69;37.03;98367.09;5152546;27;8923;-74
2022/06/09 09:11:33;;;;;;;;;4.80;4.60;;;;;28.73;36.93;98367.66;5152408;27;8835;-75
2022/06/09 09:14:05;;;;;;;;;6.40;6.40;;;;;28.65;35.57;98364.88;5107363;27;8878;-75
2022/06/09 09:16:43;;;;;;;;;6.20;6.20;;;;;28.41;36.36;98362.59;5152217;27;8930;-76
2022/06/09 09:19:22;;;;;;;;;7.00;7.00;;;;;27.92;37.35;98358.13;5150898;27;8938;-72
2022/06/09 09:22:09;;;;;;;;;6.00;6.00;;;;;28.15;38.62;98364.06;5152073;27;8862;-77
2022/06/09 09:24:46;;;;;;;;;6.20;6.00;;;;;28.36;38.65;98361.22;5047720;28;8861;-76
2022/06/09 09:27:33;;;;;;;;;7.40;6.40;;;;;27.96;38.03;98364.06;5014615;28;8881;-75
2022/06/09 09:30:07;;;;;;;;;7.80;7.60;;;;;28.34;38.18;98355.16;5047678;28;8874;-73
2022/06/09 09:32:42;;;;;;;;;6.80;6.80;;;;;28.62;37.40;98362.47;5047736;28;8839;-77
2022/06/09 09:35:15;;;;;;;;;7.60;7.60;;;;;28.80;36.84;98358.03;5047309;28;8947;-75
2022/06/09 09:37:46;;;;;;;;;12.00;12.00;;;;;28.84;37.88;98358.59;5047538;28;8949;-74
2022/06/09 09:40:22;;;;;;;;;8.00;8.00;;;;;29.01;36.79;98356.97;5047779;28;9638;-74
2022/06/09 09:42:54;;;;;;;;;6.60;6.60;;;;;29.12;37.20;98356.78;5007792;28;8835;-75
2022/06/09 09:45:33;;;;;;;;;8.00;8.00;;;;;29.23;36.56;98361.16;5008148;28;8900;-75
2022/06/09 09:48:05;;;;;;;;;6.00;6.00;;;;;29.26;37.02;98360.84;5007957;28;8846;-75
2022/06/09 09:50:47;;;;;;;;;5.80;5.80;;;;;29.45;37.17;98358.09;5007717;28;8989;-75
2022/06/09 09:53:27;;;;;;;;;9.60;8.80;;;;;29.62;37.23;98366.31;5007345;28;8858;-76
2022/06/09 09:56:00;;;;;;;;;9.00;9.00;;;;;29.85;36.10;98355.97;5007636;28;9043;-76
2022/06/09 09:58:33;;;;;;;;;8.20;7.40;;;;;29.88;35.71;98355.69;4974417;28;8892;-75
2022/06/09 10:01:05;;;;;;;;;6.40;6.40;;;;;29.92;35.87;98343.63;5017300;28;8850;-74
2022/06/09 10:09:36;;;;;;;;;8.00;6.00;;;;;30.04;36.21;98334.34;5087126;28;8861;-75
2022/06/09 10:12:29;;;;;;;;;6.60;6.60;;;;;30.04;36.55;98333.47;5087308;28;8862;-75
2022/06/09 10:15:18;;;;;;;;;9.60;9.20;;;;;29.93;36.36;98316.59;5130311;27;8850;-75
2022/06/09 10:18:02;;;;;;;;;7.00;7.00;;;;;29.92;36.19;98314.06;5130501;27;8942;-74
2022/06/09 10:21:04;;;;;;;;;7.80;7.80;;;;;29.99;35.38;98300.84;5130854;27;8819;-75
2022/06/09 10:23:43;;;;;;;;;9.00;7.80;;;;;29.98;35.25;98294.66;5129986;27;8862;-76
2022/06/09 10:26:17;;;;;;;;;8.00;8.00;;;;;29.95;35.63;98302.16;5131563;27;8842;-74
2022/06/09 10:28:57;;;;;;;;;8.20;8.20;;;;;30.06;36.46;98294.69;5131038;27;8879;-74
2022/06/09 10:31:42;;;;;;;;;9.00;9.00;;;;;29.64;34.51;98289.94;5129768;27;8872;-74
2022/06/09 10:34:23;;;;;;;;;9.20;9.20;;;;;29.42;33.97;98285.84;5130325;27;8865;-75
2022/06/09 10:36:58;;;;;;;;;7.20;7.20;;;;;29.44;35.65;98291.06;5130306;27;8842;-76
2022/06/09 10:39:36;;;;;;;;;8.80;8.80;;;;;29.69;36.64;98274.19;5130064;27;8834;-75
2022/06/09 10:42:15;;;;;;;;;7.60;7.60;;;;;29.86;36.00;98280.56;5129764;27;8958;-74
2022/06/09 10:44:49;;;;;;;;;7.40;7.40;;;;;29.79;34.64;98284.88;5130214;27;8956;-75
2022/06/09 10:56:15;;;;;;;;;7.00;7.00;;;;;30.02;33.06;98258.38;5130289;27;8877;-75
2022/06/09 10:58:50;;;;;;;;;5.00;5.00;;;;;30.19;33.31;98255.78;5129834;27;8888;-75
2022/06/09 11:01:26;;;;;;;;;6.80;6.80;;;;;30.27;32.10;98261.25;5129451;27;8846;-76
2022/06/09 11:03:55;;;;;;;;;6.80;6.80;;;;;30.49;32.20;98254.50;5142158;27;9591;-74
2022/06/09 11:06:41;;;;;;;;;7.00;7.00;;;;;30.65;32.08;98253.75;5096554;27;8854;-75
2022/06/09 11:09:25;;;;;;;;;6.60;6.60;;;;;30.82;32.51;98242.03;5150062;27;8961;-75
2022/06/09 11:12:05;;;;;;;;;5.40;5.40;;;;;30.82;32.16;98247.44;5150756;27;9576;-75
2022/06/09 11:14:49;;;;;;;;;6.00;5.40;;;;;31.01;32.43;98254.44;5150497;27;8869;-76
2022/06/09 11:17:31;;;;;;;;;4.00;4.00;;;;;31.13;30.56;98254.13;5150828;27;8843;-75
2022/06/09 11:20:17;;;;;;;;;5.20;5.20;;;;;31.21;29.41;98249.63;5150693;27;9642;-75
2022/06/09 11:22:53;;;;;;;;;7.20;5.20;;;;;31.21;28.81;98246.06;5150789;27;8851;-76
2022/06/09 11:25:33;;;;;;;;;5.80;5.80;;;;;31.22;29.03;98245.91;5150810;27;8856;-75
2022/06/09 11:28:13;;;;;;;;;6.60;6.00;;;;;31.11;29.88;98237.31;5149769;27;8859;-76
2022/06/09 11:30:56;;;;;;;;;5.40;5.40;;;;;31.07;30.58;98239.47;5149951;27;8843;-73
2022/06/09 11:33:49;;;;;;;;;6.20;6.00;;;;;31.46;30.07;98241.59;5149721;27;8994;-75
2022/06/09 11:36:27;;;;;;;;;6.80;4.80;;;;;31.69;29.99;98239.13;5149945;27;8839;-74
2022/06/09 11:39:08;;;;;;;;;7.20;6.40;;;;;31.98;29.52;98241.28;5149282;27;8941;-75
2022/06/09 11:41:44;;;;;;;;;5.60;5.60;;;;;32.22;29.78;98232.34;5148774;27;8839;-75
2022/06/09 11:44:24;;;;;;;;;5.00;5.00;;;;;32.41;29.52;98220.34;5096427;27;8863;-74
2022/06/09 11:46:56;;;;;;;;;7.20;6.80;;;;;32.35;29.56;98225.59;5149976;27;8844;-75
2022/06/09 11:49:33;;;;;;;;;5.00;5.00;;;;;32.09;29.09;98232.03;5130878;27;8835;-75
2022/06/09 11:52:05;;;;;;;;;6.40;6.40;;;;;32.20;29.08;98230.84;5149643;27;8839;-75
2022/06/09 11:54:43;;;;;;;;;6.00;6.00;;;;;32.41;29.05;98227.59;5149342;27;8902;-76
2022/06/09 11:57:22;;;;;;;;;6.40;5.80;;;;;32.74;28.12;98230.22;5149484;27;8832;-75
2022/06/09 11:59:58;;;;;;;;;5.20;4.80;;;;;32.96;27.54;98229.44;5149713;27;8963;-75
2022/06/09 12:02:52;;;;;;;;;5.20;5.20;;;;;33.17;27.71;98226.13;5149627;27;9580;-75
2022/06/09 12:05:29;;;;;;;;;6.80;5.80;;;;;33.39;27.61;98218.25;5149368;27;8875;-75
2022/06/09 12:08:29;;;;;;;;;5.80;4.80;;;;;33.25;27.75;98210.91;5149402;27;8839;-75
2022/06/09 12:11:14;;;;;;;;;6.60;5.80;;;;;33.18;27.39;98214.31;5044960;28;8908;-75
2022/06/09 12:14:00;;;;;;;;;5.80;5.60;;;;;33.25;27.72;98210.91;5045049;28;9000;-77
2022/06/09 12:16:33;;;;;;;;;5.40;5.40;;;;;33.52;27.94;98207.69;5045189;28;8942;-75
2022/06/09 12:19:17;;;;;;;;;4.00;4.00;;;;;33.80;27.41;98201.72;5044935;28;8885;-76
2022/06/09 12:21:50;;;;;;;;;4.80;4.20;;;;;33.99;26.23;98195.81;5013247;28;8869;-74
2022/06/09 12:24:26;;;;;;;;;4.60;4.60;;;;;34.17;26.22;98195.47;5046355;28;8864;-74
2022/06/09 12:27:01;;;;;;;;;3.60;3.60;;;;;33.87;26.88;98194.56;5045111;28;9084;-77
2022/06/09 12:29:43;;;;;;;;;5.40;5.00;;;;;34.00;26.78;98202.06;5028718;28;8875;-75